createdAt,value
2022-08-25T00:02:56.655Z,101617.56
2022-08-25T00:08:06.099Z,101616.28
2022-08-25T00:13:08.663Z,101608.97
2022-08-25T00:18:16.625Z,101614.22
2022-08-25T00:23:21.990Z,101602.03
2022-08-25T00:28:24.095Z,101602.75
2022-08-25T00:33:26.321Z,101599.81
2022-08-25T00:38:28.115Z,101601.41
2022-08-25T00:43:34.399Z,101596.16
2022-08-25T00:48:37.489Z,101591.66
2022-08-25T00:53:41.390Z,101583.72
2022-08-25T00:58:43.923Z,101578.69
2022-08-25T01:03:47.239Z,101580.19
2022-08-25T01:08:48.956Z,101572.63
2022-08-25T01:13:56.541Z,101567.88
2022-08-25T01:18:59.323Z,101573.16
2022-08-25T01:24:01.557Z,101566.41
2022-08-25T01:29:23.005Z,101564.72
2022-08-25T01:34:31.149Z,101565.72
2022-08-25T01:39:35.097Z,101560.34
2022-08-25T01:44:47.832Z,101560.13
2022-08-25T01:49:49.612Z,101559.00
2022-08-25T01:54:52.003Z,101546.94
2022-08-25T01:59:53.760Z,101548.53
2022-08-25T02:04:55.444Z,101546.09
2022-08-25T02:09:57.164Z,101538.28
2022-08-25T02:15:01.846Z,101538.75
2022-08-25T02:20:07.722Z,101531.44
2022-08-25T02:25:10.623Z,101537.53
2022-08-25T02:30:16.203Z,101528.19
2022-08-25T02:35:18.244Z,101527.56
2022-08-25T02:40:21.477Z,101531.22
2022-08-25T02:45:23.248Z,101520.00
2022-08-25T02:50:26.261Z,101526.56
2022-08-25T02:55:28.136Z,101515.34
2022-08-25T03:00:54.651Z,101506.91
2022-08-25T03:05:57.420Z,101500.94
2022-08-25T03:11:00.556Z,101501.16
2022-08-25T03:16:04.184Z,101496.91
2022-08-25T03:21:07.588Z,101498.59
2022-08-25T03:26:28.358Z,101493.25
2022-08-25T03:31:30.030Z,101483.63
2022-08-25T03:36:33.004Z,101476.53
2022-08-25T03:41:34.790Z,101468.13
2022-08-25T03:46:43.516Z,101462.03
2022-08-25T03:51:49.230Z,101464.38
2022-08-25T03:56:51.311Z,101454.22
2022-08-25T04:01:55.377Z,101442.31
2022-08-25T04:06:58.158Z,101435.13
2022-08-25T04:11:59.746Z,101425.13
2022-08-25T04:17:01.442Z,101433.50
2022-08-25T04:22:03.197Z,101433.50
2022-08-25T04:27:05.587Z,101428.41
2022-08-25T04:32:10.746Z,101431.44
2022-08-25T04:37:13.451Z,101427.19
2022-08-25T04:42:15.333Z,101416.06
2022-08-25T04:47:17.035Z,101430.59
2022-08-25T04:52:19.071Z,101430.91
2022-08-25T04:57:20.810Z,101428.59
2022-08-25T05:02:25.270Z,101437.75
2022-08-25T05:07:27.309Z,101440.44
2022-08-25T05:12:29.112Z,101434.31
2022-08-25T05:17:30.880Z,101435.56
2022-08-25T05:22:33.423Z,101435.94
2022-08-25T05:27:35.125Z,101439.34
2022-08-25T05:32:37.228Z,101447.50
2022-08-25T05:37:38.904Z,101454.84
2022-08-25T05:42:41.142Z,101447.03
2022-08-25T05:47:44.292Z,101444.47
2022-08-25T05:52:46.764Z,101435.22
2022-08-25T05:57:49.045Z,101449.97
2022-08-25T06:02:51.136Z,101451.69
2022-08-25T06:07:52.945Z,101452.66
2022-08-25T06:12:54.745Z,101446.56
2022-08-25T06:18:01.665Z,101448.00
2022-08-25T06:23:05.126Z,101450.94
2022-08-25T06:28:06.987Z,101444.22
2022-08-25T06:33:08.880Z,101435.72
2022-08-25T06:38:12.059Z,101427.69
2022-08-25T06:43:14.016Z,101430.47
2022-08-25T06:48:16.484Z,101432.66
2022-08-25T06:53:18.108Z,101431.31
2022-08-25T06:58:19.790Z,101442.03
2022-08-25T07:08:26.670Z,101435.34
2022-08-25T07:13:28.362Z,101433.38
2022-08-25T07:18:32.612Z,101439.31
2022-08-25T07:23:34.336Z,101444.06
2022-08-25T07:28:36.819Z,101426.34
2022-08-25T07:33:38.608Z,101439.00
2022-08-25T07:38:40.722Z,101433.16
2022-08-25T07:43:44.729Z,101428.38
2022-08-25T07:48:53.189Z,101427.78
2022-08-25T07:53:55.282Z,101430.94
2022-08-25T07:58:59.720Z,101425.09
2022-08-25T08:04:03.766Z,101413.31
2022-08-25T08:09:05.760Z,101420.38
2022-08-25T08:14:08.438Z,101417.50
2022-08-25T08:19:10.147Z,101411.59
2022-08-25T08:24:25.027Z,101414.81
2022-08-25T08:29:33.967Z,101421.94
2022-08-25T08:34:37.211Z,101416.44
2022-08-25T08:39:38.897Z,101412.16
2022-08-25T08:44:46.619Z,101417.69
2022-08-25T08:50:37.912Z,101411.94
2022-08-25T08:55:52.889Z,101413.19
2022-08-25T09:00:58.381Z,101408.53
2022-08-25T09:06:06.926Z,101408.41
2022-08-25T09:11:19.200Z,101400.00
2022-08-25T09:16:56.989Z,101404.59
2022-08-25T09:22:35.723Z,101395.94
2022-08-25T09:27:59.726Z,101402.84
2022-08-25T09:33:05.161Z,101398.66
2022-08-25T09:38:11.928Z,101397.31
2022-08-25T09:43:28.731Z,101404.66
2022-08-25T09:48:43.009Z,101392.50
2022-08-25T09:54:14.253Z,101388.25
2022-08-25T09:59:19.505Z,101391.06
2022-08-25T10:04:40.102Z,101384.56
2022-08-25T10:09:43.485Z,101382.56
2022-08-25T10:14:52.182Z,101372.63
2022-08-25T10:20:19.937Z,101377.78
2022-08-25T10:25:28.467Z,101360.38
2022-08-25T10:30:39.832Z,101344.41
2022-08-25T10:35:59.992Z,101343.50
2022-08-25T10:41:24.958Z,101344.03
2022-08-25T10:46:57.354Z,101337.91
2022-08-25T10:52:08.521Z,101334.84
2022-08-25T10:57:29.314Z,101326.06
2022-08-25T11:03:14.951Z,101320.28
2022-08-25T11:08:34.642Z,101310.03
2022-08-25T11:13:55.563Z,101326.19
2022-08-25T11:19:24.905Z,101320.69
2022-08-25T11:25:04.009Z,101314.38
2022-08-25T11:30:17.315Z,101319.34
2022-08-25T11:35:47.306Z,101312.91
2022-08-25T11:40:52.995Z,101314.13
2022-08-25T11:46:18.775Z,101308.28
2022-08-25T11:51:33.800Z,101310.13
2022-08-25T11:56:41.732Z,101318.19
2022-08-25T12:01:43.402Z,101307.97
2022-08-25T12:07:07.097Z,101309.13
2022-08-25T12:12:55.439Z,101304.00
2022-08-25T12:18:16.475Z,101291.16
2022-08-25T12:23:45.015Z,101297.81
2022-08-25T12:29:02.314Z,101299.34
2022-08-25T12:34:14.899Z,101301.78
2022-08-25T12:39:24.390Z,101297.09
2022-08-25T12:44:40.434Z,101313.28
2022-08-25T12:49:42.174Z,101300.53
2022-08-25T12:55:06.163Z,101303.25
2022-08-25T13:05:45.941Z,101308.38
2022-08-25T13:11:36.925Z,101313.16
2022-08-25T13:16:38.945Z,101308.63
2022-08-25T13:21:43.382Z,101298.16
2022-08-25T13:26:54.411Z,101301.88
2022-08-25T13:31:59.859Z,101296.78
2022-08-25T13:37:29.552Z,101289.28
2022-08-25T13:42:31.936Z,101282.88
2022-08-25T13:47:43.766Z,101275.28
2022-08-25T13:52:53.702Z,101280.78
2022-08-25T13:57:58.776Z,101277.91
2022-08-25T14:03:03.469Z,101270.91
2022-08-25T14:08:32.643Z,101267.44
2022-08-25T14:13:35.110Z,101266.06
2022-08-25T14:18:37.264Z,101281.59
2022-08-25T14:23:39.667Z,101279.28
2022-08-25T14:28:41.483Z,101272.88
2022-08-25T14:33:52.899Z,101270.97
2022-08-25T14:38:56.399Z,101268.00
2022-08-25T14:43:58.178Z,101265.59
2022-08-25T14:49:02.635Z,101261.28
2022-08-25T14:54:07.361Z,101261.00
2022-08-25T14:59:10.762Z,101279.94
2022-08-25T15:04:20.554Z,101291.28
2022-08-25T15:09:23.928Z,101293.69
2022-08-25T15:14:28.535Z,101288.94
2022-08-25T15:19:34.659Z,101293.53
2022-08-25T15:24:37.993Z,101289.38
2022-08-25T15:29:41.755Z,101282.75
2022-08-25T15:34:43.991Z,101270.91
2022-08-25T15:39:48.999Z,101273.03
2022-08-25T15:44:53.452Z,101282.41
2022-08-25T15:50:07.423Z,101280.84
2022-08-25T15:55:10.751Z,101272.34
2022-08-25T16:00:13.509Z,101281.78
2022-08-25T16:05:16.469Z,101274.75
2022-08-25T16:10:18.492Z,101275.34
2022-08-25T16:15:24.070Z,101266.03
2022-08-25T16:20:33.532Z,101262.38
2022-08-25T16:25:39.919Z,101254.47
2022-08-25T16:30:52.487Z,101259.25
2022-08-25T16:36:05.980Z,101250.25
2022-08-25T16:41:15.233Z,101252.81
2022-08-25T16:46:18.646Z,101234.69
2022-08-25T16:51:22.786Z,101236.41
2022-08-25T16:56:28.445Z,101237.84
2022-08-25T17:01:34.200Z,101250.00
2022-08-25T17:06:39.575Z,101256.50
2022-08-25T17:11:47.385Z,101264.38
2022-08-25T17:16:51.291Z,101277.03
2022-08-25T17:21:54.907Z,101260.34
2022-08-25T17:26:56.849Z,101261.16
2022-08-25T17:31:59.254Z,101260.03
2022-08-25T17:37:01.032Z,101259.16
2022-08-25T17:42:04.919Z,101270.75
2022-08-25T17:47:06.777Z,101276.88
2022-08-25T17:52:09.367Z,101285.28
2022-08-25T17:57:11.018Z,101304.66
2022-08-25T18:02:14.897Z,101297.31
2022-08-25T18:07:16.660Z,101310.06
2022-08-25T18:12:18.944Z,101309.94
2022-08-25T18:17:23.048Z,101316.47
2022-08-25T18:22:25.198Z,101322.88
2022-08-25T18:27:28.586Z,101328.38
2022-08-25T18:32:39.446Z,101330.59
2022-08-25T18:38:06.063Z,101327.81
2022-08-25T18:43:11.789Z,101336.78
2022-08-25T18:48:18.623Z,101326.22
2022-08-25T18:53:30.666Z,101329.25
2022-08-25T18:58:39.760Z,101332.66
2022-08-25T19:03:43.443Z,101349.44
2022-08-25T19:08:45.225Z,101360.38
2022-08-25T19:13:48.418Z,101383.47
2022-08-25T19:18:52.069Z,101373.28
2022-08-25T19:23:55.399Z,101387.72
2022-08-25T19:28:57.268Z,101381.13
2022-08-25T19:33:59.265Z,101380.47
2022-08-25T19:39:02.162Z,101390.53
2022-08-25T19:44:04.061Z,101396.47
2022-08-25T19:49:08.755Z,101399.06
2022-08-25T19:54:12.300Z,101403.00
2022-08-25T19:59:14.118Z,101418.53
2022-08-25T20:04:16.107Z,101420.59
2022-08-25T20:09:35.757Z,101430.41
2022-08-25T20:14:40.276Z,101440.19
2022-08-25T20:19:42.973Z,101455.25
2022-08-25T20:24:57.677Z,101443.13
2022-08-25T20:29:59.838Z,101444.38
2022-08-25T20:35:08.959Z,101443.81
2022-08-25T20:40:15.325Z,101447.16
2022-08-25T20:45:18.536Z,101453.38
2022-08-25T20:50:20.637Z,101458.66
2022-08-25T20:55:22.609Z,101457.13
2022-08-25T21:00:24.838Z,101463.41
2022-08-25T21:05:26.797Z,101465.72
2022-08-25T21:10:28.450Z,101459.34
2022-08-25T21:15:30.786Z,101458.13
2022-08-25T21:20:34.576Z,101453.00
2022-08-25T21:25:41.710Z,101460.00
2022-08-25T21:30:47.147Z,101467.47
2022-08-25T21:35:49.048Z,101462.16
2022-08-25T21:40:51.813Z,101463.72
2022-08-25T21:45:53.608Z,101469.69
2022-08-25T21:51:15.536Z,101463.06
2022-08-25T21:56:22.467Z,101468.06
2022-08-25T22:01:27.991Z,101463.22
2022-08-25T22:06:30.379Z,101472.56
2022-08-25T22:11:33.927Z,101475.66
2022-08-25T22:16:39.386Z,101473.44
2022-08-25T22:21:43.076Z,101475.28
2022-08-25T22:26:48.448Z,101465.56
2022-08-25T22:31:52.802Z,101479.31
2022-08-25T22:36:54.715Z,101469.50
2022-08-25T22:42:02.934Z,101485.72
2022-08-25T22:47:04.881Z,101482.47
2022-08-25T22:52:06.959Z,101484.03
2022-08-25T22:57:11.793Z,101498.94
2022-08-25T23:02:13.693Z,101489.94
2022-08-25T23:07:15.385Z,101495.56
2022-08-25T23:12:17.123Z,101496.66
2022-08-25T23:17:18.772Z,101503.19
2022-08-25T23:22:22.612Z,101504.91
2022-08-25T23:27:25.336Z,101487.75
2022-08-25T23:32:28.133Z,101495.56
2022-08-25T23:37:30.021Z,101489.53
2022-08-25T23:42:31.919Z,101507.22
2022-08-25T23:47:33.650Z,101502.56
2022-08-25T23:52:36.058Z,101493.75
2022-08-25T23:57:37.778Z,101495.00
